createdAt,value
2018-12-25T00:01:42.804Z,2.90
2018-12-25T00:04:11.398Z,2.90
2018-12-25T00:06:40.003Z,3.00
2018-12-25T00:09:08.498Z,3.00
2018-12-25T00:11:37.083Z,3.00
2018-12-25T00:14:06.246Z,3.00
2018-12-25T00:16:34.841Z,2.90
2018-12-25T00:19:06.233Z,3.00
2018-12-25T00:21:33.654Z,3.00
2018-12-25T00:24:02.175Z,3.00
2018-12-25T00:26:30.784Z,3.10
2018-12-25T00:28:59.242Z,3.00
2018-12-25T00:31:27.806Z,3.10
2018-12-25T00:33:56.256Z,3.10
2018-12-25T00:36:24.731Z,3.00
2018-12-25T00:38:53.242Z,3.10
2018-12-25T00:41:21.752Z,3.00
2018-12-25T00:43:50.276Z,3.10
2018-12-25T00:46:18.847Z,3.10
2018-12-25T00:48:47.464Z,3.10
2018-12-25T00:51:16.042Z,3.00
2018-12-25T00:53:44.479Z,3.00
2018-12-25T00:56:12.912Z,3.00
2018-12-25T00:58:41.375Z,2.90
2018-12-25T01:01:09.991Z,2.90
2018-12-25T01:03:38.580Z,2.90
2018-12-25T01:06:07.103Z,2.90
2018-12-25T01:08:35.547Z,2.90
2018-12-25T01:11:03.968Z,2.90
2018-12-25T01:13:32.529Z,2.90
2018-12-25T01:16:00.932Z,3.00
2018-12-25T01:18:29.383Z,3.00
2018-12-25T01:20:57.812Z,3.00
2018-12-25T01:23:26.247Z,3.10
2018-12-25T01:25:54.692Z,3.10
2018-12-25T01:28:23.208Z,3.10
2018-12-25T01:30:51.632Z,3.10
2018-12-25T01:33:20.114Z,3.10
2018-12-25T01:35:48.539Z,3.10
2018-12-25T01:38:17.030Z,3.10
2018-12-25T01:40:45.448Z,3.10
2018-12-25T01:43:13.909Z,3.20
2018-12-25T01:45:42.389Z,3.20
2018-12-25T01:48:10.839Z,3.20
2018-12-25T01:50:39.290Z,3.20
2018-12-25T01:53:07.727Z,3.30
2018-12-25T01:55:36.163Z,3.20
2018-12-25T01:58:04.683Z,3.20
2018-12-25T02:00:33.193Z,3.20
2018-12-25T02:03:01.690Z,3.20
2018-12-25T02:05:30.168Z,3.20
2018-12-25T02:07:58.574Z,3.20
2018-12-25T02:10:27.030Z,3.20
2018-12-25T02:12:55.479Z,3.20
2018-12-25T02:15:23.927Z,3.20
2018-12-25T02:17:52.356Z,3.20
2018-12-25T02:20:20.812Z,3.20
2018-12-25T02:22:49.252Z,3.20
2018-12-25T02:25:17.698Z,3.20
2018-12-25T02:27:46.139Z,3.20
2018-12-25T02:30:14.636Z,3.30
2018-12-25T02:32:43.055Z,3.20
2018-12-25T02:35:11.551Z,3.30
2018-12-25T02:37:40.226Z,3.30
2018-12-25T02:40:08.888Z,3.30
2018-12-25T02:42:37.391Z,3.30
2018-12-25T02:45:06.086Z,3.40
2018-12-25T02:47:34.568Z,3.40
2018-12-25T02:50:03.229Z,3.40
2018-12-25T02:52:31.783Z,3.40
2018-12-25T02:55:00.387Z,3.40
2018-12-25T02:57:29.141Z,3.40
2018-12-25T02:59:57.560Z,3.40
2018-12-25T03:02:26.003Z,3.40
2018-12-25T03:04:54.439Z,3.40
2018-12-25T03:07:22.907Z,3.50
2018-12-25T03:09:51.396Z,3.50
2018-12-25T03:12:19.865Z,3.50
2018-12-25T03:14:48.425Z,3.50
2018-12-25T03:17:16.967Z,3.50
2018-12-25T03:19:45.425Z,3.50
2018-12-25T03:22:14.008Z,3.50
2018-12-25T03:24:42.537Z,3.50
2018-12-25T03:27:10.962Z,3.40
2018-12-25T03:29:39.556Z,3.40
2018-12-25T03:32:08.030Z,3.40
2018-12-25T03:34:36.519Z,3.40
2018-12-25T03:37:05.102Z,3.40
2018-12-25T03:39:33.656Z,3.40
2018-12-25T03:42:02.151Z,3.50
2018-12-25T03:44:30.663Z,3.50
2018-12-25T03:46:59.306Z,3.50
2018-12-25T03:49:27.811Z,3.50
2018-12-25T03:51:56.357Z,3.50
2018-12-25T03:54:24.832Z,3.50
2018-12-25T03:56:53.540Z,3.50
2018-12-25T03:59:21.968Z,3.50
2018-12-25T04:01:50.392Z,3.50
2018-12-25T04:04:18.863Z,3.50
2018-12-25T04:06:47.324Z,3.50
2018-12-25T04:09:15.806Z,3.60
2018-12-25T04:11:44.448Z,3.60
2018-12-25T04:14:13.071Z,3.60
2018-12-25T04:16:41.538Z,3.60
2018-12-25T04:19:09.968Z,3.60
2018-12-25T04:21:38.475Z,3.60
2018-12-25T04:24:06.906Z,3.60
2018-12-25T04:26:35.348Z,3.60
2018-12-25T04:29:03.775Z,3.60
2018-12-25T04:31:32.219Z,3.60
2018-12-25T04:34:00.640Z,3.60
2018-12-25T04:36:29.089Z,3.60
2018-12-25T04:38:57.504Z,3.60
2018-12-25T04:41:25.955Z,3.60
2018-12-25T04:43:54.391Z,3.60
2018-12-25T04:46:22.933Z,3.60
2018-12-25T04:48:51.371Z,3.60
2018-12-25T04:51:19.816Z,3.60
2018-12-25T04:53:48.234Z,3.60
2018-12-25T04:56:16.762Z,3.60
2018-12-25T04:58:45.245Z,3.60
2018-12-25T05:01:13.667Z,3.70
2018-12-25T05:03:42.125Z,3.60
2018-12-25T05:06:10.579Z,3.60
2018-12-25T05:08:39.004Z,3.60
2018-12-25T05:11:07.431Z,3.70
2018-12-25T05:13:35.876Z,3.70
2018-12-25T05:16:04.311Z,3.60
2018-12-25T05:18:32.831Z,3.60
2018-12-25T05:21:01.255Z,3.60
2018-12-25T05:23:29.725Z,3.60
2018-12-25T05:25:58.144Z,3.60
2018-12-25T05:28:26.593Z,3.60
2018-12-25T05:30:55.026Z,3.60
2018-12-25T05:33:23.476Z,3.60
2018-12-25T05:35:52.057Z,3.60
2018-12-25T05:38:20.502Z,3.60
2018-12-25T05:40:48.931Z,3.60
2018-12-25T05:43:17.376Z,4.70
2018-12-25T05:45:45.803Z,3.60
2018-12-25T05:48:14.247Z,3.60
2018-12-25T05:50:46.705Z,3.60
2018-12-25T05:53:12.931Z,3.60
2018-12-25T05:55:41.448Z,3.50
2018-12-25T05:58:09.895Z,3.50
2018-12-25T06:00:38.456Z,3.50
2018-12-25T06:03:06.943Z,4.20
2018-12-25T06:05:35.439Z,3.50
2018-12-25T06:08:03.879Z,3.50
2018-12-25T06:10:32.331Z,3.50
2018-12-25T06:13:00.762Z,3.60
2018-12-25T06:15:29.206Z,3.60
2018-12-25T06:17:57.623Z,3.50
2018-12-25T06:20:26.077Z,3.50
2018-12-25T06:22:54.498Z,3.50
2018-12-25T06:25:22.968Z,3.60
2018-12-25T06:27:51.449Z,3.60
2018-12-25T06:30:19.924Z,3.60
2018-12-25T06:32:48.344Z,3.60
2018-12-25T06:35:16.765Z,3.60
2018-12-25T06:37:45.208Z,3.50
2018-12-25T06:40:13.639Z,3.60
2018-12-25T06:42:42.083Z,3.60
2018-12-25T06:45:10.521Z,3.50
2018-12-25T06:47:38.976Z,3.50
2018-12-25T06:50:07.391Z,3.50
2018-12-25T06:52:35.852Z,3.50
2018-12-25T06:55:04.424Z,3.50
2018-12-25T06:57:32.867Z,3.50
2018-12-25T07:00:01.298Z,3.60
2018-12-25T07:02:29.789Z,3.60
2018-12-25T07:04:58.338Z,3.60
2018-12-25T07:07:26.792Z,3.60
2018-12-25T07:09:55.253Z,3.60
2018-12-25T07:12:23.711Z,3.60
2018-12-25T07:14:52.143Z,3.60
2018-12-25T07:17:20.574Z,3.60
2018-12-25T07:19:49.029Z,3.60
2018-12-25T07:22:17.459Z,3.60
2018-12-25T07:24:45.917Z,3.70
2018-12-25T07:27:14.359Z,3.70
2018-12-25T07:29:42.812Z,3.70
2018-12-25T07:32:11.297Z,3.70
2018-12-25T07:34:39.756Z,3.70
2018-12-25T07:37:08.173Z,3.70
2018-12-25T07:39:36.616Z,3.80
2018-12-25T07:42:05.040Z,3.80
2018-12-25T07:44:33.485Z,3.80
2018-12-25T07:47:01.911Z,3.80
2018-12-25T07:49:30.364Z,3.80
2018-12-25T07:51:58.808Z,3.80
2018-12-25T07:54:27.243Z,3.90
2018-12-25T07:56:55.697Z,3.80
2018-12-25T07:59:24.117Z,3.80
2018-12-25T08:01:52.567Z,3.90
2018-12-25T08:04:20.995Z,3.90
2018-12-25T08:06:49.451Z,3.90
2018-12-25T08:09:17.884Z,4.00
2018-12-25T08:11:46.347Z,4.00
2018-12-25T08:14:14.781Z,4.00
2018-12-25T08:16:43.228Z,4.10
2018-12-25T08:19:11.663Z,4.10
2018-12-25T08:21:40.107Z,4.10
2018-12-25T08:24:08.548Z,4.10
2018-12-25T08:26:37.000Z,4.10
2018-12-25T08:29:05.437Z,4.10
2018-12-25T08:31:33.880Z,4.10
2018-12-25T08:34:02.301Z,4.00
2018-12-25T08:36:30.744Z,4.00
2018-12-25T08:38:59.167Z,4.00
2018-12-25T08:41:28.338Z,4.10
2018-12-25T08:43:56.730Z,4.10
2018-12-25T08:46:25.195Z,4.10
2018-12-25T08:48:53.623Z,4.20
2018-12-25T08:51:22.082Z,4.20
2018-12-25T08:53:50.538Z,4.30
2018-12-25T08:56:18.984Z,4.40
2018-12-25T08:58:47.440Z,4.40
2018-12-25T09:01:15.903Z,4.50
2018-12-25T09:03:44.361Z,4.50
2018-12-25T09:06:12.889Z,4.60
2018-12-25T09:08:41.329Z,4.60
2018-12-25T09:11:09.760Z,4.60
2018-12-25T09:13:38.344Z,4.70
2018-12-25T09:16:06.763Z,4.80
2018-12-25T09:18:35.223Z,4.80
2018-12-25T09:21:03.647Z,4.90
2018-12-25T09:23:32.111Z,4.90
2018-12-25T09:26:00.526Z,4.90
2018-12-25T09:28:29.004Z,4.90
2018-12-25T09:30:57.501Z,4.90
2018-12-25T09:33:25.930Z,4.80
2018-12-25T09:35:54.377Z,4.90
2018-12-25T09:38:22.869Z,4.90
2018-12-25T09:40:51.305Z,4.90
2018-12-25T09:43:19.797Z,4.90
2018-12-25T09:45:48.238Z,5.00
2018-12-25T09:48:16.660Z,5.00
2018-12-25T09:50:45.119Z,5.10
2018-12-25T09:53:14.952Z,5.10
2018-12-25T09:55:43.529Z,5.20
2018-12-25T09:58:11.951Z,5.20
2018-12-25T10:00:40.474Z,5.30
2018-12-25T10:03:08.906Z,5.20
2018-12-25T10:05:37.352Z,5.20
2018-12-25T10:08:05.793Z,5.20
2018-12-25T10:10:34.251Z,5.30
2018-12-25T10:13:02.903Z,5.40
2018-12-25T10:15:31.364Z,5.40
2018-12-25T10:17:59.795Z,5.40
2018-12-25T10:20:28.370Z,5.40
2018-12-25T10:22:59.555Z,5.40
2018-12-25T10:25:28.136Z,5.50
2018-12-25T10:27:56.692Z,5.50
2018-12-25T10:30:25.371Z,5.50
2018-12-25T10:32:54.724Z,5.60
2018-12-25T10:35:23.408Z,5.60
2018-12-25T10:37:52.096Z,5.70
2018-12-25T10:40:20.652Z,5.80
2018-12-25T10:42:49.177Z,5.70
2018-12-25T10:45:17.665Z,5.80
2018-12-25T10:47:46.108Z,5.80
2018-12-25T10:50:14.556Z,5.90
2018-12-25T10:52:43.003Z,6.00
2018-12-25T10:55:11.427Z,6.20
2018-12-25T10:57:39.943Z,6.30
2018-12-25T11:00:13.195Z,6.50
2018-12-25T11:02:41.717Z,6.60
2018-12-25T11:05:10.160Z,6.60
2018-12-25T11:07:38.608Z,6.70
2018-12-25T11:10:08.291Z,6.60
2018-12-25T11:12:36.755Z,6.50
2018-12-25T11:15:06.224Z,6.60
2018-12-25T11:17:34.675Z,6.80
2018-12-25T11:20:11.244Z,6.70
2018-12-25T11:22:33.387Z,6.70
2018-12-25T11:25:01.925Z,6.70
2018-12-25T11:27:30.355Z,6.90
2018-12-25T11:29:58.840Z,6.90
2018-12-25T11:32:27.271Z,7.00
2018-12-25T11:34:55.748Z,7.10
2018-12-25T11:37:24.177Z,7.20
2018-12-25T11:39:52.664Z,7.20
2018-12-25T11:42:21.149Z,7.10
2018-12-25T11:44:51.373Z,7.10
2018-12-25T11:47:19.839Z,7.10
2018-12-25T11:49:48.309Z,7.10
2018-12-25T11:52:16.735Z,7.00
2018-12-25T11:54:45.167Z,7.10
2018-12-25T11:57:13.614Z,7.10
2018-12-25T11:59:42.094Z,7.20
2018-12-25T12:02:17.051Z,7.20
2018-12-25T12:04:40.838Z,7.20
2018-12-25T12:07:09.282Z,7.30
2018-12-25T12:09:37.722Z,7.80
2018-12-25T12:12:06.174Z,7.50
2018-12-25T12:14:34.698Z,7.50
2018-12-25T12:17:03.183Z,7.40
2018-12-25T12:19:31.677Z,7.20
2018-12-25T12:22:00.145Z,7.30
2018-12-25T12:24:28.577Z,7.40
2018-12-25T12:26:57.060Z,7.20
2018-12-25T12:29:25.591Z,7.30
2018-12-25T12:31:54.076Z,7.20
2018-12-25T12:34:22.562Z,7.20
2018-12-25T12:36:51.064Z,7.20
2018-12-25T12:39:19.532Z,7.20
2018-12-25T12:41:48.052Z,7.20
2018-12-25T12:44:16.586Z,7.20
2018-12-25T12:46:45.030Z,7.20
2018-12-25T12:49:13.508Z,7.10
2018-12-25T12:51:42.019Z,7.10
2018-12-25T12:54:10.467Z,7.20
2018-12-25T12:56:38.911Z,7.10
2018-12-25T12:59:07.377Z,7.10
2018-12-25T13:01:35.798Z,7.00
2018-12-25T13:04:04.278Z,7.00
2018-12-25T13:06:32.708Z,7.10
2018-12-25T13:09:01.162Z,7.10
2018-12-25T13:11:29.600Z,7.20
2018-12-25T13:13:58.081Z,7.20
2018-12-25T13:16:26.597Z,7.20
2018-12-25T13:18:55.120Z,7.10
2018-12-25T13:21:24.470Z,7.10
2018-12-25T13:23:53.006Z,7.10
2018-12-25T13:26:21.460Z,7.10
2018-12-25T13:28:49.985Z,7.10
2018-12-25T13:31:18.460Z,7.10
2018-12-25T13:33:46.924Z,7.10
2018-12-25T13:36:15.367Z,7.20
2018-12-25T13:38:43.808Z,7.20
2018-12-25T13:41:12.243Z,7.20
2018-12-25T13:43:40.711Z,7.20
2018-12-25T13:46:09.155Z,7.20
2018-12-25T13:48:37.588Z,7.10
2018-12-25T13:51:06.122Z,7.10
2018-12-25T13:53:34.611Z,7.00
2018-12-25T13:56:03.152Z,7.10
2018-12-25T13:58:31.578Z,7.00
2018-12-25T14:01:00.301Z,7.00
2018-12-25T14:03:28.747Z,7.00
2018-12-25T14:05:57.470Z,6.90
2018-12-25T14:08:26.086Z,6.80
2018-12-25T14:10:54.539Z,6.80
2018-12-25T14:13:22.973Z,6.80
2018-12-25T14:15:51.437Z,6.80
2018-12-25T14:18:19.868Z,6.80
2018-12-25T14:20:48.320Z,6.80
2018-12-25T14:23:16.996Z,6.80
2018-12-25T14:25:45.477Z,6.70
2018-12-25T14:28:13.920Z,6.70
2018-12-25T14:30:42.353Z,6.70
2018-12-25T14:33:10.812Z,6.60
2018-12-25T14:35:39.332Z,6.60
2018-12-25T14:38:07.791Z,6.40
2018-12-25T14:40:36.244Z,6.40
2018-12-25T14:43:04.695Z,6.30
2018-12-25T14:45:33.139Z,6.40
2018-12-25T14:48:01.586Z,6.30
2018-12-25T14:50:30.039Z,6.30
2018-12-25T14:52:58.503Z,6.30
2018-12-25T14:55:26.934Z,6.20
2018-12-25T14:57:55.411Z,6.30
2018-12-25T15:00:24.136Z,6.20
2018-12-25T15:02:52.683Z,6.20
2018-12-25T15:05:21.152Z,6.20
2018-12-25T15:07:49.692Z,6.20
2018-12-25T15:10:18.226Z,6.20
2018-12-25T15:12:46.701Z,6.30
2018-12-25T15:15:15.148Z,6.30
2018-12-25T15:17:43.603Z,6.20
2018-12-25T15:20:12.050Z,6.20
2018-12-25T15:22:40.743Z,6.10
2018-12-25T15:25:09.255Z,6.20
2018-12-25T15:27:37.722Z,6.10
2018-12-25T15:30:07.219Z,6.10
2018-12-25T15:32:35.671Z,6.10
2018-12-25T15:35:07.175Z,6.10
2018-12-25T15:37:35.607Z,6.00
2018-12-25T15:40:05.003Z,6.10
2018-12-25T15:42:33.438Z,6.00
2018-12-25T15:45:01.901Z,6.00
2018-12-25T15:47:30.335Z,6.00
2018-12-25T15:49:58.787Z,6.00
2018-12-25T15:52:27.232Z,6.00
2018-12-25T15:54:55.682Z,5.90
2018-12-25T15:57:24.232Z,5.90
2018-12-25T15:59:52.743Z,5.90
2018-12-25T16:02:21.173Z,5.90
2018-12-25T16:04:49.634Z,5.80
2018-12-25T16:07:18.063Z,5.70
2018-12-25T16:09:46.540Z,5.70
2018-12-25T16:12:14.980Z,5.70
2018-12-25T16:14:43.421Z,5.70
2018-12-25T16:17:11.893Z,5.70
2018-12-25T16:19:43.631Z,5.70
2018-12-25T16:22:12.090Z,5.70
2018-12-25T16:24:40.510Z,5.60
2018-12-25T16:27:08.976Z,5.60
2018-12-25T16:29:37.416Z,5.50
2018-12-25T16:32:05.882Z,5.50
2018-12-25T16:34:34.308Z,5.40
2018-12-25T16:37:02.784Z,5.40
2018-12-25T16:39:31.198Z,5.30
2018-12-25T16:41:59.659Z,5.30
2018-12-25T16:44:28.152Z,5.30
2018-12-25T16:46:56.624Z,5.30
2018-12-25T16:49:25.082Z,5.30
2018-12-25T16:51:53.563Z,5.30
2018-12-25T16:54:22.088Z,5.30
2018-12-25T16:56:50.640Z,5.30
2018-12-25T16:59:19.059Z,5.30
2018-12-25T17:01:47.544Z,5.30
2018-12-25T17:04:16.002Z,5.30
2018-12-25T17:06:44.455Z,5.40
2018-12-25T17:09:12.953Z,5.40
2018-12-25T17:11:41.404Z,5.40
2018-12-25T17:14:09.878Z,5.40
2018-12-25T17:16:38.314Z,5.50
2018-12-25T17:19:06.782Z,5.50
2018-12-25T17:21:35.228Z,5.50
2018-12-25T17:24:03.671Z,5.50
2018-12-25T17:26:32.138Z,5.40
2018-12-25T17:29:00.591Z,5.40
2018-12-25T17:31:29.155Z,5.30
2018-12-25T17:33:57.620Z,5.30
2018-12-25T17:36:26.055Z,5.30
2018-12-25T17:38:54.594Z,5.20
2018-12-25T17:41:23.116Z,5.20
2018-12-25T17:43:51.591Z,5.20
2018-12-25T17:46:20.030Z,5.20
2018-12-25T17:48:48.484Z,5.20
2018-12-25T17:51:17.534Z,5.30
2018-12-25T17:53:46.041Z,5.30
2018-12-25T17:56:14.481Z,5.40
2018-12-25T17:58:42.957Z,5.40
2018-12-25T18:01:11.456Z,5.50
2018-12-25T18:03:40.000Z,5.40
2018-12-25T18:06:08.485Z,5.40
2018-12-25T18:08:36.947Z,5.40
2018-12-25T18:11:05.532Z,5.40
2018-12-25T18:13:33.963Z,5.40
2018-12-25T18:16:02.496Z,5.30
2018-12-25T18:18:30.963Z,5.30
2018-12-25T18:20:59.436Z,5.30
2018-12-25T18:23:27.905Z,5.30
2018-12-25T18:25:59.939Z,5.30
2018-12-25T18:28:28.187Z,5.40
2018-12-25T18:30:56.727Z,5.30
2018-12-25T18:33:25.147Z,5.30
2018-12-25T18:35:53.632Z,5.30
2018-12-25T18:38:22.128Z,5.20
2018-12-25T18:40:50.605Z,5.20
2018-12-25T18:43:19.045Z,5.20
2018-12-25T18:45:47.561Z,5.10
2018-12-25T18:48:16.024Z,5.00
2018-12-25T18:50:44.499Z,5.00
2018-12-25T18:53:12.987Z,5.00
2018-12-25T18:55:41.484Z,4.80
2018-12-25T18:58:09.976Z,4.80
2018-12-25T19:00:38.423Z,4.70
2018-12-25T19:03:06.938Z,4.70
2018-12-25T19:05:35.483Z,4.60
2018-12-25T19:08:04.132Z,4.50
2018-12-25T19:10:32.593Z,4.50
2018-12-25T19:13:01.011Z,4.50
2018-12-25T19:15:29.436Z,4.40
2018-12-25T19:17:57.895Z,4.40
2018-12-25T19:20:26.332Z,4.40
2018-12-25T19:22:54.791Z,4.30
2018-12-25T19:25:23.218Z,4.30
2018-12-25T19:27:51.686Z,4.20
2018-12-25T19:30:21.555Z,4.20
2018-12-25T19:32:50.045Z,4.10
2018-12-25T19:35:18.552Z,4.10
2018-12-25T19:37:47.079Z,4.10
2018-12-25T19:40:15.546Z,4.00
2018-12-25T19:42:43.999Z,4.00
2018-12-25T19:45:12.584Z,3.90
2018-12-25T19:47:41.033Z,3.90
2018-12-25T19:50:09.729Z,3.80
2018-12-25T19:52:38.220Z,3.80
2018-12-25T19:55:07.403Z,3.90
2018-12-25T19:57:35.868Z,3.90
2018-12-25T20:00:06.736Z,3.80
2018-12-25T20:02:35.338Z,3.80
2018-12-25T20:05:12.773Z,3.80
2018-12-25T20:07:56.083Z,3.80
2018-12-25T20:10:33.634Z,3.70
2018-12-25T20:13:22.803Z,3.60
2018-12-25T20:16:03.062Z,3.50
2018-12-25T20:18:52.207Z,3.50
2018-12-25T20:21:43.102Z,3.50
2018-12-25T20:24:26.507Z,3.40
2018-12-25T20:27:20.140Z,3.40
2018-12-25T20:30:00.540Z,3.40
2018-12-25T20:32:54.491Z,3.40
2018-12-25T20:35:58.860Z,3.30
2018-12-25T20:38:54.152Z,3.20
2018-12-25T20:41:35.436Z,3.20
2018-12-25T20:44:21.636Z,3.10
2018-12-25T20:47:09.468Z,3.10
2018-12-25T20:49:58.668Z,3.00
2018-12-25T20:52:52.408Z,2.90
2018-12-25T20:55:32.026Z,2.90
2018-12-25T20:58:15.246Z,2.80
2018-12-25T21:01:08.875Z,2.80
2018-12-25T21:03:46.117Z,2.70
2018-12-25T21:06:38.265Z,2.70
2018-12-25T21:09:12.660Z,2.60
2018-12-25T21:12:17.180Z,2.60
2018-12-25T21:14:54.220Z,2.60
2018-12-25T21:17:49.388Z,2.50
2018-12-25T21:20:38.765Z,2.50
2018-12-25T21:23:43.035Z,2.40
2018-12-25T21:26:47.362Z,2.40
2018-12-25T21:29:15.872Z,2.40
2018-12-25T21:31:44.490Z,2.30
2018-12-25T21:34:13.070Z,2.30
2018-12-25T21:36:44.601Z,2.20
2018-12-25T21:39:13.023Z,2.30
2018-12-25T21:41:42.074Z,2.20
2018-12-25T21:44:10.634Z,2.20
2018-12-25T21:46:39.163Z,2.20
2018-12-25T21:49:09.240Z,2.20
2018-12-25T21:51:37.839Z,2.20
2018-12-25T21:54:06.383Z,2.20
2018-12-25T21:56:35.324Z,2.20
2018-12-25T21:59:03.859Z,2.20
2018-12-25T22:01:32.383Z,2.20
2018-12-25T22:04:01.067Z,2.10
2018-12-25T22:06:29.515Z,2.10
2018-12-25T22:08:57.980Z,2.00
2018-12-25T22:11:26.404Z,2.00
2018-12-25T22:13:54.928Z,1.90
2018-12-25T22:16:23.502Z,1.90
2018-12-25T22:18:51.983Z,1.80
2018-12-25T22:21:20.416Z,1.80
2018-12-25T22:23:48.943Z,1.70
2018-12-25T22:26:17.406Z,1.70
2018-12-25T22:28:45.837Z,1.70
2018-12-25T22:31:14.308Z,1.70
2018-12-25T22:33:42.746Z,1.60
2018-12-25T22:36:11.232Z,1.60
2018-12-25T22:38:39.687Z,1.60
2018-12-25T22:41:08.140Z,1.60
2018-12-25T22:43:36.584Z,1.50
2018-12-25T22:46:05.048Z,1.50
2018-12-25T22:48:33.503Z,1.50
2018-12-25T22:51:01.953Z,1.50
2018-12-25T22:53:30.391Z,1.40
2018-12-25T22:55:58.848Z,1.40
2018-12-25T22:58:27.307Z,1.40
2018-12-25T23:00:55.938Z,1.40
2018-12-25T23:03:24.414Z,1.40
2018-12-25T23:05:52.915Z,1.30
2018-12-25T23:08:21.369Z,1.30
2018-12-25T23:10:49.824Z,1.30
2018-12-25T23:13:18.247Z,1.30
2018-12-25T23:15:46.720Z,1.20
2018-12-25T23:18:15.149Z,1.20
2018-12-25T23:20:43.587Z,1.20
2018-12-25T23:23:12.025Z,1.20
2018-12-25T23:25:44.570Z,1.10
2018-12-25T23:28:10.623Z,1.10
2018-12-25T23:30:39.053Z,1.10
2018-12-25T23:33:07.503Z,1.10
2018-12-25T23:35:35.937Z,1.10
2018-12-25T23:38:04.425Z,1.10
2018-12-25T23:40:33.023Z,1.10
2018-12-25T23:43:01.511Z,1.10
2018-12-25T23:45:30.027Z,1.00
2018-12-25T23:47:59.295Z,1.00
2018-12-25T23:50:27.764Z,1.00
2018-12-25T23:52:56.257Z,-0.20
2018-12-25T23:55:24.704Z,1.00
2018-12-25T23:57:53.137Z,1.00
